Time;durP1;ratioP1;P1;durP2;ratioP2;P2;SDS_P1;SDS_P2;PMS_P1;PMS_P2;Temp;Humidity;BMP_temperature;BMP_pressure;BME280_temperature;BME280_humidity;BME280_pressure;Samples;Min_cycle;Max_cycle;Signal;HPM_P1;HPM_P2
2023/01/10 00:01:32;;;;;;;1.95;1.30;;;4.10;99.90;;;;;;5054473;28;20532;-77
2023/01/10 00:03:58;;;;;;;2.58;1.80;;;4.20;99.90;;;;;;5070046;28;20536;-76
2023/01/10 00:06:24;;;;;;;2.30;1.00;;;4.10;99.90;;;;;;5073501;28;20042;-79
2023/01/10 00:08:50;;;;;;;2.30;1.40;;;4.20;99.90;;;;;;5053791;28;20078;-78
2023/01/10 00:14:01;;;;;;;2.47;1.42;;;4.20;99.90;;;;;;5069573;28;20043;-78
2023/01/10 00:16:27;;;;;;;1.65;1.40;;;4.10;99.90;;;;;;5056860;28;20548;-79
2023/01/10 00:18:52;;;;;;;2.10;1.90;;;4.10;99.90;;;;;;5076174;28;20055;-79
2023/01/10 00:21:19;;;;;;;3.25;1.52;;;4.20;99.90;;;;;;5074637;28;20040;-79
2023/01/10 00:23:45;;;;;;;2.95;1.70;;;4.20;99.90;;;;;;5054325;28;20028;-78
2023/01/10 00:26:11;;;;;;;2.28;1.45;;;4.20;99.90;;;;;;5032481;28;20037;-78
2023/01/10 00:28:38;;;;;;;2.08;1.58;;;4.10;99.90;;;;;;5060199;28;20037;-78
2023/01/10 00:31:05;;;;;;;4.00;1.83;;;4.20;99.90;;;;;;5074210;28;20032;-78
2023/01/10 00:33:33;;;;;;;3.80;1.90;;;4.20;99.90;;;;;;5066782;28;20368;-79
2023/01/10 00:35:59;;;;;;;1.98;1.73;;;4.20;99.90;;;;;;5072909;28;20052;-77
2023/01/10 00:38:25;;;;;;;3.67;1.90;;;4.20;99.90;;;;;;5074826;28;20028;-78
2023/01/10 00:40:51;;;;;;;3.70;1.90;;;4.20;99.90;;;;;;5074420;28;20035;-78
2023/01/10 00:46:02;;;;;;;5.45;2.05;;;4.20;99.90;;;;;;5068652;28;20145;-78
2023/01/10 00:48:29;;;;;;;4.70;2.10;;;4.20;99.90;;;;;;5054445;28;20048;-78
2023/01/10 00:50:55;;;;;;;3.05;1.90;;;4.20;99.90;;;;;;5054200;28;20048;-78
2023/01/10 00:53:21;;;;;;;2.40;1.80;;;4.20;99.90;;;;;;5071099;28;20683;-77
2023/01/10 00:55:47;;;;;;;3.22;1.92;;;4.20;99.90;;;;;;5071785;28;20143;-78
2023/01/10 00:58:14;;;;;;;2.05;1.85;;;4.20;99.90;;;;;;5042279;28;20536;-78
2023/01/10 01:00:41;;;;;;;3.33;2.15;;;4.20;99.90;;;;;;5073176;28;20516;-78
2023/01/10 01:03:07;;;;;;;2.20;1.98;;;4.20;99.90;;;;;;5071342;28;20048;-78
2023/01/10 01:05:39;;;;;;;6.30;1.90;;;4.20;99.90;;;;;;5050890;28;20112;-78
2023/01/10 01:08:04;;;;;;;6.47;1.95;;;4.20;99.90;;;;;;5072220;28;20131;-78
2023/01/10 01:10:31;;;;;;;3.08;1.70;;;4.20;99.90;;;;;;5069751;28;20112;-78
2023/01/10 01:13:04;;;;;;;2.72;1.77;;;4.10;99.90;;;;;;5042009;28;20572;-78
2023/01/10 01:15:30;;;;;;;1.65;1.42;;;4.20;99.90;;;;;;5051278;28;20025;-78
2023/01/10 01:17:56;;;;;;;3.92;1.98;;;4.20;99.90;;;;;;5055460;28;20040;-78
2023/01/10 01:20:21;;;;;;;4.13;1.52;;;4.20;99.90;;;;;;5056104;28;20029;-78
2023/01/10 01:22:47;;;;;;;3.67;1.42;;;4.10;99.90;;;;;;5071720;28;20052;-78
2023/01/10 01:25:14;;;;;;;2.30;1.75;;;4.20;99.90;;;;;;5068474;28;20110;-78
2023/01/10 01:27:40;;;;;;;2.15;1.48;;;4.20;99.90;;;;;;5072987;28;20028;-78
2023/01/10 01:30:07;;;;;;;8.43;1.98;;;4.10;99.90;;;;;;5052971;28;20862;-78
2023/01/10 01:32:33;;;;;;;2.42;1.25;;;4.10;99.90;;;;;;5071105;28;20052;-78
2023/01/10 01:34:59;;;;;;;2.33;1.40;;;4.20;99.90;;;;;;5072553;28;20496;-78
2023/01/10 01:37:25;;;;;;;1.08;0.98;;;4.20;99.90;;;;;;5070005;28;20549;-79
2023/01/10 01:39:52;;;;;;;2.85;1.65;;;4.10;99.90;;;;;;5072069;28;20106;-78
2023/01/10 01:42:24;;;;;;;3.17;1.60;;;4.10;99.90;;;;;;5072069;28;20455;-78
2023/01/10 01:45:08;;;;;;;5.75;1.50;;;4.20;99.90;;;;;;5069380;28;20036;-79
2023/01/10 01:47:49;;;;;;;3.42;1.40;;;4.10;99.90;;;;;;5072773;28;20526;-78
2023/01/10 01:50:26;;;;;;;1.77;1.23;;;4.10;99.90;;;;;;5036048;28;20032;-78
2023/01/10 01:52:56;;;;;;;3.35;1.33;;;4.10;99.90;;;;;;5070316;28;20032;-76
2023/01/10 01:55:24;;;;;;;2.20;1.40;;;4.10;99.90;;;;;;5053238;28;20619;-78
2023/01/10 01:57:52;;;;;;;2.50;1.20;;;4.10;99.90;;;;;;5068964;28;20116;-76
2023/01/10 02:00:18;;;;;;;3.40;1.60;;;4.10;99.90;;;;;;5045979;28;20159;-78
2023/01/10 02:02:49;;;;;;;3.50;1.25;;;4.10;99.90;;;;;;5050788;28;20025;-77
2023/01/10 02:05:17;;;;;;;3.50;1.20;;;4.10;99.90;;;;;;5068187;28;20029;-78
2023/01/10 02:07:46;;;;;;;2.50;1.38;;;4.10;99.90;;;;;;5068755;28;20133;-77
2023/01/10 02:10:18;;;;;;;1.45;1.23;;;4.10;99.90;;;;;;5032109;28;20092;-79
2023/01/10 02:12:46;;;;;;;1.90;1.35;;;4.20;99.90;;;;;;5050116;28;20651;-79
2023/01/10 02:15:15;;;;;;;5.32;1.30;;;4.10;99.90;;;;;;5049181;28;20037;-78
2023/01/10 02:17:41;;;;;;;4.07;2.95;;;4.20;99.90;;;;;;5054103;28;20560;-77
2023/01/10 02:20:10;;;;;;;2.72;1.40;;;4.10;99.90;;;;;;5071782;28;20067;-77
2023/01/10 02:23:23;;;;;;;2.92;1.77;;;4.20;99.90;;;;;;5048328;28;20021;-79
2023/01/10 02:26:17;;;;;;;1.30;1.17;;;4.10;99.90;;;;;;5027128;28;20053;-79
2023/01/10 02:29:02;;;;;;;3.25;1.58;;;4.10;99.90;;;;;;5051274;28;20044;-79
2023/01/10 02:31:28;;;;;;;;;;;4.10;99.90;;;;;;5069923;28;20032;-78
2023/01/10 02:33:54;;;;;;;5.47;1.48;;;4.10;99.90;;;;;;5069930;28;19999;-78
2023/01/10 02:36:44;;;;;;;4.32;1.65;;;4.10;99.90;;;;;;5071715;28;20051;-78
2023/01/10 02:39:25;;;;;;;1.67;1.20;;;4.00;99.90;;;;;;5070838;28;20024;-78
2023/01/10 02:42:00;;;;;;;3.13;1.48;;;4.10;99.90;;;;;;5047102;28;20048;-78
2023/01/10 02:44:29;;;;;;;;;;;4.10;99.90;;;;;;5071910;28;20052;-78
2023/01/10 02:46:55;;;;;;;2.88;2.10;;;4.10;99.90;;;;;;5054452;28;19973;-78
2023/01/10 02:49:21;;;;;;;3.13;1.20;;;4.10;99.90;;;;;;5057690;28;20135;-78
2023/01/10 02:51:47;;;;;;;5.32;1.40;;;4.10;99.90;;;;;;5070664;28;20024;-78
2023/01/10 02:54:21;;;;;;;1.98;1.23;;;4.10;99.90;;;;;;5071633;28;20086;-78
2023/01/10 02:56:52;;;;;;;3.55;1.58;;;4.10;99.90;;;;;;5071865;28;20045;-78
2023/01/10 02:59:44;;;;;;;4.03;1.83;;;4.10;99.90;;;;;;5074022;28;20046;-78
2023/01/10 03:02:29;;;;;;;3.60;1.60;;;4.10;99.90;;;;;;5046335;28;20035;-78
2023/01/10 03:05:09;;;;;;;1.48;1.38;;;4.10;99.90;;;;;;5059348;28;20428;-79
2023/01/10 03:07:43;;;;;;;1.55;1.38;;;4.10;99.90;;;;;;5072950;28;20086;-78
2023/01/10 03:10:15;;;;;;;2.85;1.50;;;4.10;99.90;;;;;;5073279;28;20042;-78
2023/01/10 03:12:59;;;;;;;2.13;1.58;;;4.10;99.90;;;;;;5053015;28;20743;-78
2023/01/10 03:15:30;;;;;;;3.03;1.60;;;4.10;99.90;;;;;;5072235;28;20032;-78
2023/01/10 03:17:59;;;;;;;3.17;1.75;;;4.10;99.90;;;;;;5074537;28;20033;-78
2023/01/10 03:20:25;;;;;;;3.03;1.42;;;4.10;99.90;;;;;;5064395;28;20447;-78
2023/01/10 03:22:54;;;;;;;3.03;1.27;;;4.10;99.90;;;;;;5053541;28;20047;-78
2023/01/10 03:25:25;;;;;;;3.95;1.90;;;4.10;99.90;;;;;;5071814;28;20485;-78
2023/01/10 03:27:57;;;;;;;2.72;1.40;;;4.10;99.90;;;;;;5053584;28;20131;-78
2023/01/10 03:30:45;;;;;;;4.18;1.33;;;4.10;99.90;;;;;;5045205;28;20068;-79
2023/01/10 03:33:14;;;;;;;1.95;1.30;;;4.10;99.90;;;;;;5052661;28;20025;-78
2023/01/10 03:36:19;;;;;;;2.40;1.50;;;4.10;99.90;;;;;;5069624;28;20032;-78
2023/01/10 03:38:48;;;;;;;4.50;1.63;;;4.10;99.90;;;;;;5065340;28;20039;-78
2023/01/10 03:41:39;;;;;;;4.07;1.70;;;4.00;99.90;;;;;;5070413;28;20111;-78
2023/01/10 03:47:33;;;;;;;2.42;1.65;;;4.00;99.90;;;;;;5070393;28;20036;-78
2023/01/10 03:50:05;;;;;;;4.53;2.85;;;4.00;99.90;;;;;;5072582;28;20120;-78
2023/01/10 03:52:33;;;;;;;2.03;1.60;;;4.00;99.90;;;;;;5068890;28;20543;-78
2023/01/10 03:55:01;;;;;;;5.25;1.80;;;4.00;99.90;;;;;;5053509;28;20041;-79
2023/01/10 03:57:27;;;;;;;1.65;1.52;;;4.00;99.90;;;;;;5050532;28;20064;-79
2023/01/10 03:59:56;;;;;;;6.05;1.60;;;4.00;99.90;;;;;;5045328;28;20544;-78
2023/01/10 04:02:30;;;;;;;3.63;1.50;;;4.00;99.90;;;;;;5051269;28;20029;-78
2023/01/10 04:04:57;;;;;;;2.60;1.80;;;4.00;99.90;;;;;;5069996;28;20020;-78
2023/01/10 04:07:24;;;;;;;4.70;1.90;;;4.00;99.90;;;;;;5018736;28;20401;-78
2023/01/10 04:09:50;;;;;;;1.67;1.58;;;4.00;99.90;;;;;;5055851;28;20128;-78
2023/01/10 04:12:16;;;;;;;2.08;1.63;;;4.00;99.90;;;;;;5071460;28;20056;-79
2023/01/10 04:14:45;;;;;;;3.13;1.63;;;4.00;99.90;;;;;;5068261;28;20518;-78
2023/01/10 04:17:11;;;;;;;3.20;1.80;;;4.00;99.90;;;;;;5072739;28;20140;-79
2023/01/10 04:19:37;;;;;;;6.03;1.75;;;4.00;99.90;;;;;;5055952;28;20043;-79
2023/01/10 04:22:04;;;;;;;2.47;1.77;;;4.00;99.90;;;;;;5071977;28;20043;-78
2023/01/10 04:24:31;;;;;;;3.08;1.83;;;4.00;99.90;;;;;;5050447;28;20033;-78
2023/01/10 04:26:57;;;;;;;3.10;1.90;;;4.00;99.90;;;;;;5070597;28;20033;-78
2023/01/10 04:29:23;;;;;;;3.58;1.45;;;4.00;99.90;;;;;;5044481;28;20033;-78
2023/01/10 04:31:50;;;;;;;4.25;1.50;;;4.00;99.90;;;;;;5057259;28;20032;-78
2023/01/10 04:34:15;;;;;;;3.80;1.50;;;4.00;99.90;;;;;;5060932;28;20033;-78
2023/01/10 04:36:41;;;;;;;3.05;1.77;;;4.00;99.90;;;;;;5071863;28;20637;-78
2023/01/10 04:39:08;;;;;;;2.10;1.88;;;4.00;99.90;;;;;;5030800;28;20108;-78
2023/01/10 04:41:34;;;;;;;2.33;1.58;;;4.00;99.90;;;;;;5074882;28;20034;-78
2023/01/10 04:44:00;;;;;;;3.60;1.90;;;4.00;99.90;;;;;;5068675;28;20041;-78
2023/01/10 04:46:26;;;;;;;1.98;1.80;;;4.00;99.90;;;;;;5075348;28;20024;-78
2023/01/10 04:48:52;;;;;;;2.00;1.80;;;4.00;99.90;;;;;;5075087;28;20111;-78
2023/01/10 04:51:18;;;;;;;3.17;1.48;;;4.00;99.90;;;;;;5040543;28;20032;-78
2023/01/10 04:53:44;;;;;;;2.05;1.85;;;4.00;99.90;;;;;;5072943;28;20032;-78
2023/01/10 04:56:17;;;;;;;3.55;1.50;;;4.00;99.90;;;;;;5056735;28;20037;-78
2023/01/10 04:58:43;;;;;;;2.40;1.23;;;3.90;99.90;;;;;;5063339;28;20036;-78
2023/01/10 05:01:12;;;;;;;2.85;1.70;;;4.00;99.90;;;;;;5075044;28;20495;-78
2023/01/10 05:03:39;;;;;;;3.00;1.98;;;4.00;99.90;;;;;;5047966;28;20620;-78
2023/01/10 05:06:06;;;;;;;3.38;2.20;;;3.90;99.90;;;;;;5074087;28;20096;-78
2023/01/10 05:08:32;;;;;;;2.67;2.10;;;3.90;99.90;;;;;;5074586;28;20044;-77
2023/01/10 05:10:58;;;;;;;4.82;2.08;;;3.90;99.90;;;;;;5057436;28;20028;-78
2023/01/10 05:13:25;;;;;;;2.00;1.80;;;3.90;99.90;;;;;;5035289;28;20099;-78
2023/01/10 05:15:57;;;;;;;2.22;1.90;;;4.00;99.90;;;;;;5074371;28;20028;-78
2023/01/10 05:18:24;;;;;;;4.55;1.80;;;3.90;99.90;;;;;;5074712;28;20029;-78
2023/01/10 05:20:50;;;;;;;3.88;2.10;;;3.90;99.90;;;;;;5065641;28;20055;-78
2023/01/10 05:23:16;;;;;;;2.20;1.80;;;3.90;99.90;;;;;;5054990;28;20028;-78
2023/01/10 05:25:41;;;;;;;4.82;1.75;;;3.90;99.90;;;;;;5074452;28;20036;-78
2023/01/10 05:28:07;;;;;;;1.98;1.70;;;4.00;99.90;;;;;;5062226;28;20028;-77
2023/01/10 05:30:33;;;;;;;2.20;1.77;;;3.90;99.90;;;;;;5070875;28;20021;-77
2023/01/10 05:32:59;;;;;;;2.10;1.40;;;3.90;99.90;;;;;;5050172;28;20024;-78
2023/01/10 05:35:25;;;;;;;3.08;2.10;;;3.90;99.90;;;;;;5056136;28;20040;-78
2023/01/10 05:37:52;;;;;;;2.40;1.67;;;4.00;99.90;;;;;;5056501;28;20032;-78
2023/01/10 05:40:19;;;;;;;4.00;1.80;;;4.00;99.90;;;;;;5056009;28;20033;-78
2023/01/10 05:42:44;;;;;;;3.03;1.75;;;3.90;99.90;;;;;;5056589;28;20032;-79
2023/01/10 05:45:10;;;;;;;5.15;2.28;;;3.90;99.90;;;;;;5073753;28;20041;-79
2023/01/10 05:47:37;;;;;;;5.45;2.30;;;3.90;99.90;;;;;;5040599;28;20851;-78
2023/01/10 05:50:03;;;;;;;2.25;1.80;;;3.90;99.90;;;;;;5053764;28;20608;-78
2023/01/10 05:52:29;;;;;;;4.07;2.20;;;3.90;99.90;;;;;;5072741;28;20040;-79
2023/01/10 05:54:54;;;;;;;3.13;2.20;;;3.90;99.90;;;;;;5055304;28;20033;-78
2023/01/10 05:57:21;;;;;;;3.47;2.03;;;3.90;99.90;;;;;;5054783;28;20119;-78
2023/01/10 05:59:47;;;;;;;2.28;1.98;;;3.90;99.90;;;;;;5073772;28;20068;-79
2023/01/10 06:02:13;;;;;;;2.88;2.05;;;4.00;99.90;;;;;;5056030;28;20040;-78
2023/01/10 06:04:38;;;;;;;5.75;2.40;;;4.00;99.90;;;;;;5074314;28;20036;-79
2023/01/10 06:07:04;;;;;;;2.90;1.90;;;4.00;99.90;;;;;;5056237;28;20512;-78
2023/01/10 06:09:31;;;;;;;3.67;2.33;;;4.00;99.90;;;;;;5058361;28;20090;-78
2023/01/10 06:11:57;;;;;;;3.70;1.90;;;4.00;99.90;;;;;;5036084;28;20061;-77
2023/01/10 06:14:23;;;;;;;4.78;2.33;;;4.00;99.90;;;;;;5073095;28;20039;-78
2023/01/10 06:16:49;;;;;;;4.13;2.17;;;4.00;99.90;;;;;;5065381;28;20033;-78
2023/01/10 06:19:15;;;;;;;4.20;2.53;;;4.00;99.90;;;;;;5053660;28;20090;-78
2023/01/10 06:21:41;;;;;;;6.60;2.65;;;4.00;99.90;;;;;;5073337;28;20068;-78
2023/01/10 06:24:08;;;;;;;7.07;2.88;;;4.00;99.90;;;;;;5073102;28;20037;-77
2023/01/10 06:26:34;;;;;;;5.20;2.72;;;4.00;99.90;;;;;;5044794;28;20033;-77
2023/01/10 06:29:00;;;;;;;3.92;2.78;;;4.00;99.90;;;;;;5052226;28;20501;-78
2023/01/10 06:31:26;;;;;;;2.72;2.42;;;4.00;99.90;;;;;;5039460;28;20033;-78
2023/01/10 06:33:52;;;;;;;3.75;2.90;;;4.00;99.90;;;;;;5073818;28;20456;-78
2023/01/10 06:36:19;;;;;;;3.33;2.30;;;4.00;99.90;;;;;;5038015;28;20029;-77
2023/01/10 06:38:45;;;;;;;5.38;2.35;;;4.00;99.90;;;;;;5067548;28;20041;-78
2023/01/10 06:41:11;;;;;;;3.60;2.10;;;3.90;99.90;;;;;;5073348;28;20096;-77
2023/01/10 06:43:44;;;;;;;3.35;2.42;;;3.90;99.90;;;;;;5047961;28;20079;-77
2023/01/10 06:46:15;;;;;;;5.70;2.70;;;3.90;99.90;;;;;;5049065;28;20029;-79
2023/01/10 06:48:45;;;;;;;2.47;2.13;;;3.80;99.90;;;;;;5072010;28;20028;-78
2023/01/10 06:51:13;;;;;;;6.57;2.60;;;3.80;99.90;;;;;;5072806;28;20489;-79
2023/01/10 06:53:40;;;;;;;5.90;2.50;;;3.70;99.90;;;;;;5037111;28;20559;-79
2023/01/10 06:56:06;;;;;;;4.47;2.63;;;3.70;99.90;;;;;;5066815;28;20360;-79
2023/01/10 06:58:33;;;;;;;3.65;2.35;;;3.70;99.90;;;;;;5072269;28;20042;-79
2023/01/10 07:00:59;;;;;;;2.38;2.08;;;3.70;99.90;;;;;;5073862;28;20036;-79
2023/01/10 07:03:25;;;;;;;4.82;2.45;;;3.70;99.90;;;;;;5051653;28;20074;-79
2023/01/10 07:05:51;;;;;;;2.80;2.50;;;3.70;99.90;;;;;;5062383;28;20093;-78
2023/01/10 07:08:17;;;;;;;4.10;2.53;;;3.70;99.90;;;;;;5057048;28;20053;-78
2023/01/10 07:10:43;;;;;;;4.90;2.22;;;3.70;99.90;;;;;;5042934;28;20124;-78
2023/01/10 07:13:09;;;;;;;2.85;2.17;;;3.70;99.90;;;;;;5070569;28;20032;-78
2023/01/10 07:15:36;;;;;;;4.97;2.40;;;3.70;99.90;;;;;;5074230;28;20024;-79
2023/01/10 07:18:02;;;;;;;3.78;2.83;;;3.70;99.90;;;;;;5073932;28;20112;-79
2023/01/10 07:20:28;;;;;;;4.63;2.80;;;3.70;99.90;;;;;;5073344;28;20122;-79
2023/01/10 07:22:56;;;;;;;4.45;2.63;;;3.70;99.90;;;;;;5053795;28;20025;-79
2023/01/10 07:25:23;;;;;;;3.88;2.85;;;3.80;99.90;;;;;;5071903;28;20104;-79
2023/01/10 07:27:49;;;;;;;4.82;2.80;;;3.80;99.90;;;;;;5063545;28;20047;-79
2023/01/10 07:30:16;;;;;;;5.78;3.33;;;3.80;99.90;;;;;;5053898;28;20032;-78
2023/01/10 07:32:42;;;;;;;5.18;3.22;;;3.80;99.90;;;;;;5065878;28;20110;-79
2023/01/10 07:35:08;;;;;;;7.38;3.50;;;3.80;99.90;;;;;;5057379;28;20039;-78
2023/01/10 07:37:34;;;;;;;5.80;3.15;;;3.90;99.90;;;;;;5072901;28;20029;-79
2023/01/10 07:40:00;;;;;;;4.47;3.30;;;3.90;99.90;;;;;;5042773;28;20033;-78
2023/01/10 07:42:26;;;;;;;4.88;2.78;;;3.90;99.90;;;;;;5054266;28;20033;-78
2023/01/10 07:44:52;;;;;;;5.47;2.78;;;3.90;99.90;;;;;;5055762;28;20131;-79
2023/01/10 07:47:18;;;;;;;3.28;2.95;;;3.80;99.90;;;;;;5035693;28;20037;-78
2023/01/10 07:49:44;;;;;;;3.92;2.80;;;3.90;99.90;;;;;;5070680;28;20029;-78
2023/01/10 07:52:10;;;;;;;2.90;2.33;;;3.80;99.90;;;;;;5052497;28;20025;-78
2023/01/10 07:54:36;;;;;;;4.63;2.72;;;3.80;99.90;;;;;;5070710;28;20049;-78
2023/01/10 07:57:02;;;;;;;6.55;3.17;;;3.90;99.90;;;;;;5037614;28;20036;-79
2023/01/10 07:59:28;;;;;;;5.68;2.55;;;3.90;99.90;;;;;;5074961;28;20636;-79
2023/01/10 08:01:54;;;;;;;4.43;2.50;;;3.90;99.90;;;;;;5054870;28;20052;-79
2023/01/10 08:04:20;;;;;;;4.13;2.97;;;3.90;99.90;;;;;;5031618;28;20037;-78
2023/01/10 08:06:46;;;;;;;7.47;3.22;;;3.90;99.90;;;;;;5074782;28;20043;-79
2023/01/10 08:09:12;;;;;;;4.20;2.97;;;4.00;99.90;;;;;;5058947;28;20066;-78
2023/01/10 08:11:38;;;;;;;4.35;3.50;;;4.00;99.90;;;;;;5072828;28;20025;-79
2023/01/10 08:14:04;;;;;;;4.20;3.00;;;4.00;99.90;;;;;;5057709;28;20028;-79
2023/01/10 08:16:31;;;;;;;4.28;2.83;;;4.00;99.90;;;;;;5048132;28;20501;-78
2023/01/10 08:18:57;;;;;;;5.13;3.00;;;4.00;99.90;;;;;;5057887;28;20055;-78
2023/01/10 08:21:23;;;;;;;4.50;3.17;;;4.10;99.90;;;;;;5057585;28;20037;-77
2023/01/10 08:23:50;;;;;;;5.35;2.95;;;4.10;99.90;;;;;;5037789;28;20025;-78
2023/01/10 08:26:17;;;;;;;4.00;2.75;;;4.00;99.90;;;;;;5070789;28;20033;-78
2023/01/10 08:28:43;;;;;;;4.82;2.58;;;4.00;99.90;;;;;;5057850;28;20033;-78
2023/01/10 08:31:09;;;;;;;3.85;2.20;;;4.10;99.90;;;;;;5059462;28;20107;-79
2023/01/10 08:33:39;;;;;;;4.43;2.63;;;4.10;99.90;;;;;;5075246;28;20032;-80
2023/01/10 08:36:12;;;;;;;3.47;2.60;;;4.10;99.90;;;;;;5074897;28;20028;-78
2023/01/10 08:38:38;;;;;;;6.82;3.05;;;4.20;99.90;;;;;;5059122;28;20882;-79
2023/01/10 08:41:04;;;;;;;4.43;2.80;;;4.20;99.90;;;;;;5057183;28;20033;-79
2023/01/10 08:43:30;;;;;;;5.78;2.63;;;4.10;99.90;;;;;;5075943;28;20449;-79
2023/01/10 08:45:56;;;;;;;3.90;2.75;;;4.10;99.90;;;;;;5081077;28;20041;-79
2023/01/10 08:48:22;;;;;;;3.92;2.65;;;4.10;99.90;;;;;;5074819;28;20028;-79
2023/01/10 08:50:48;;;;;;;5.25;2.70;;;4.20;99.90;;;;;;5071232;28;20476;-79
2023/01/10 08:53:14;;;;;;;6.15;2.65;;;4.20;99.90;;;;;;5056331;28;20103;-79
2023/01/10 08:55:40;;;;;;;4.47;2.13;;;4.20;99.90;;;;;;5077186;28;20028;-79
2023/01/10 08:58:06;;;;;;;5.80;2.47;;;4.20;99.90;;;;;;5061564;28;20119;-79
2023/01/10 09:00:32;;;;;;;5.43;2.88;;;4.30;99.90;;;;;;5056615;28;20036;-78
2023/01/10 09:02:57;;;;;;;4.65;2.60;;;4.30;99.90;;;;;;5074467;28;20036;-78
2023/01/10 09:05:24;;;;;;;5.93;2.50;;;4.30;99.90;;;;;;5039088;28;20033;-78
2023/01/10 09:07:51;;;;;;;4.07;2.30;;;4.40;99.90;;;;;;5056576;28;20033;-80
2023/01/10 09:10:17;;;;;;;5.97;2.53;;;4.40;99.90;;;;;;5073635;28;20025;-79
2023/01/10 09:12:55;;;;;;;3.53;2.50;;;4.40;99.90;;;;;;5055746;28;20051;-78
2023/01/10 09:15:33;;;;;;;3.53;2.33;;;4.40;99.90;;;;;;5078824;28;20036;-79
2023/01/10 09:18:03;;;;;;;7.13;2.75;;;4.40;99.90;;;;;;5037392;28;20040;-79
2023/01/10 09:20:30;;;;;;;9.60;2.70;;;4.50;99.90;;;;;;5072996;28;20028;-78
2023/01/10 09:22:57;;;;;;;3.45;2.28;;;4.60;99.90;;;;;;5075505;28;20024;-78
2023/01/10 09:25:23;;;;;;;4.60;2.60;;;4.60;99.90;;;;;;5077113;28;20404;-79
2023/01/10 09:27:57;;;;;;;3.53;1.80;;;4.70;99.90;;;;;;5081058;28;20536;-79
2023/01/10 09:30:24;;;;;;;6.18;2.10;;;4.70;99.90;;;;;;5062105;28;20139;-79
2023/01/10 09:32:52;;;;;;;6.53;2.38;;;4.70;99.90;;;;;;5075991;28;20024;-79
2023/01/10 09:35:19;;;;;;;3.80;1.83;;;4.80;99.90;;;;;;5075424;28;20036;-79
2023/01/10 09:37:44;;;;;;;7.80;2.17;;;4.80;99.90;;;;;;5075556;28;20523;-79
2023/01/10 09:40:18;;;;;;;6.28;1.90;;;4.80;99.90;;;;;;5062000;28;20024;-79
2023/01/10 09:43:10;;;;;;;3.92;2.15;;;4.80;99.90;;;;;;5058765;28;20033;-79
2023/01/10 09:45:58;;;;;;;5.38;2.17;;;4.80;99.90;;;;;;5074644;28;20025;-79
2023/01/10 09:49:05;;;;;;;4.53;1.88;;;4.90;99.90;;;;;;5072919;28;20024;-80
2023/01/10 09:51:36;;;;;;;3.72;1.80;;;4.80;99.90;;;;;;5072287;28;20036;-80
2023/01/10 09:54:09;;;;;;;5.07;2.50;;;4.80;99.90;;;;;;5072086;28;20497;-80
2023/01/10 09:56:36;;;;;;;3.83;2.00;;;4.80;99.90;;;;;;5054184;28;20098;-79
2023/01/10 09:59:02;;;;;;;6.15;2.40;;;4.80;99.90;;;;;;5072582;28;20035;-80
2023/01/10 10:01:36;;;;;;;3.33;2.08;;;4.90;99.90;;;;;;5053730;28;20509;-79
2023/01/10 10:04:24;;;;;;;8.32;2.38;;;4.90;99.90;;;;;;5061024;28;20067;-80
2023/01/10 10:06:51;;;;;;;5.38;2.47;;;5.00;99.90;;;;;;5038702;28;20119;-80
2023/01/10 10:09:25;;;;;;;2.75;1.90;;;5.00;99.90;;;;;;5052482;28;20032;-80
2023/01/10 10:12:22;;;;;;;6.83;1.93;;;5.00;99.90;;;;;;5066712;28;20535;-79
2023/01/10 10:15:12;;;;;;;4.10;2.05;;;5.00;99.90;;;;;;5071962;28;20021;-80
2023/01/10 10:17:38;;;;;;;6.55;1.98;;;5.10;99.90;;;;;;5070941;28;20024;-80
2023/01/10 10:20:25;;;;;;;4.78;1.77;;;5.00;99.90;;;;;;5072440;28;20025;-79
2023/01/10 10:23:04;;;;;;;5.43;1.90;;;5.00;99.90;;;;;;5068268;28;20021;-79
2023/01/10 10:26:01;;;;;;;4.25;1.90;;;5.10;99.90;;;;;;5072223;28;20035;-79
2023/01/10 10:28:45;;;;;;;4.25;1.80;;;5.10;99.90;;;;;;5051150;28;20490;-80
2023/01/10 10:31:21;;;;;;;5.80;1.70;;;5.20;99.90;;;;;;5068453;28;20028;-78
2023/01/10 10:33:51;;;;;;;10.55;1.95;;;5.30;99.90;;;;;;5072005;28;20654;-79
2023/01/10 10:36:55;;;;;;;2.88;2.08;;;5.30;99.90;;;;;;5055790;28;20129;-80
2023/01/10 10:39:30;;;;;;;6.28;1.85;;;5.30;99.90;;;;;;5068457;28;20043;-79
2023/01/10 10:41:57;;;;;;;7.50;1.90;;;5.40;99.90;;;;;;5065571;28;20036;-79
2023/01/10 10:44:32;;;;;;;5.03;1.70;;;5.40;99.90;;;;;;5052930;28;20414;-78
2023/01/10 10:46:59;;;;;;;4.63;1.55;;;5.40;99.90;;;;;;5070837;28;20024;-78
2023/01/10 10:49:37;;;;;;;6.38;1.67;;;5.40;99.90;;;;;;5037317;28;20028;-79
2023/01/10 10:52:22;;;;;;;4.28;1.80;;;5.30;99.90;;;;;;5072745;28;20492;-79
2023/01/10 10:54:48;;;;;;;2.88;1.60;;;5.30;99.90;;;;;;5074114;28;20028;-79
2023/01/10 10:57:14;;;;;;;5.63;1.60;;;5.20;99.90;;;;;;5055932;28;20032;-79
2023/01/10 10:59:45;;;;;;;2.78;1.10;;;5.20;99.90;;;;;;5074114;28;20025;-80
2023/01/10 11:02:25;;;;;;;4.85;1.73;;;5.20;99.90;;;;;;5053141;28;20048;-79
2023/01/10 11:04:55;;;;;;;5.22;1.13;;;5.20;99.90;;;;;;5069515;28;20054;-79
2023/01/10 11:07:22;;;;;;;3.75;1.40;;;5.10;99.90;;;;;;5046619;28;20041;-79
2023/01/10 11:12:34;;;;;;;2.83;1.60;;;5.00;99.90;;;;;;5041099;28;20106;-79
2023/01/10 11:15:00;;;;;;;6.10;1.50;;;5.00;99.90;;;;;;5081510;28;20032;-79
2023/01/10 11:17:31;;;;;;;3.50;1.33;;;5.00;99.90;;;;;;5073949;28;20459;-79
2023/01/10 11:20:05;;;;;;;2.65;1.30;;;4.90;99.90;;;;;;5073198;28;20541;-79
2023/01/10 11:22:53;;;;;;;6.55;1.20;;;4.90;99.90;;;;;;5062362;28;20093;-79
2023/01/10 11:25:21;;;;;;;8.95;2.20;;;4.90;99.90;;;;;;5040355;28;20037;-79
2023/01/10 11:27:50;;;;;;;8.75;1.90;;;4.90;99.90;;;;;;5056484;28;20068;-79
2023/01/10 11:30:25;;;;;;;2.28;1.38;;;4.90;99.90;;;;;;5074846;28;20067;-79
2023/01/10 11:32:55;;;;;;;;;;;4.90;99.90;;;;;;5056110;28;20040;-79
2023/01/10 11:35:31;;;;;;;4.50;1.40;;;4.90;99.90;;;;;;5042356;28;20002;-79
2023/01/10 11:38:02;;;;;;;6.05;1.67;;;5.00;99.90;;;;;;5084804;28;20040;-79
2023/01/10 11:40:31;;;;;;;4.22;1.27;;;5.00;99.90;;;;;;5074507;28;20029;-79
2023/01/10 11:42:58;;;;;;;4.15;1.88;;;5.00;99.90;;;;;;5077985;28;20116;-79
2023/01/10 11:45:32;;;;;;;5.68;1.88;;;5.00;99.90;;;;;;5077311;28;20044;-79
2023/01/10 11:48:21;;;;;;;4.40;1.60;;;5.00;99.90;;;;;;5078413;28;20592;-79
2023/01/10 11:50:50;;;;;;;4.85;1.92;;;5.00;99.90;;;;;;5054258;28;20108;-79
2023/01/10 11:53:33;;;;;;;7.55;2.10;;;5.00;99.90;;;;;;5054824;28;20120;-80
2023/01/10 11:56:00;;;;;;;4.18;1.80;;;5.00;99.90;;;;;;5053523;28;20082;-79
2023/01/10 11:58:31;;;;;;;4.78;1.88;;;5.00;99.90;;;;;;5041697;28;20671;-79
2023/01/10 12:00:57;;;;;;;3.47;1.60;;;5.00;99.90;;;;;;5078595;28;20085;-79
2023/01/10 12:03:35;;;;;;;4.53;1.90;;;4.90;99.90;;;;;;5060294;28;20409;-79
2023/01/10 12:06:28;;;;;;;5.03;2.00;;;4.90;99.90;;;;;;5040444;28;20037;-79
2023/01/10 12:08:56;;;;;;;5.22;2.20;;;4.90;99.90;;;;;;5068358;28;20041;-79
2023/01/10 12:11:28;;;;;;;6.03;1.77;;;4.90;99.90;;;;;;5077188;28;20055;-79
2023/01/10 12:13:59;;;;;;;6.75;1.80;;;5.00;99.90;;;;;;5076887;28;20032;-80
2023/01/10 12:16:32;;;;;;;4.65;1.88;;;5.00;99.90;;;;;;5070599;28;20088;-80
2023/01/10 12:19:01;;;;;;;4.63;1.55;;;5.10;99.90;;;;;;5077788;28;20033;-78
2023/01/10 12:21:44;;;;;;;9.85;1.95;;;5.10;99.90;;;;;;5077438;28;20473;-79
2023/01/10 12:24:30;;;;;;;4.70;2.00;;;5.10;99.90;;;;;;5060126;28;20025;-79
2023/01/10 12:26:58;;;;;;;6.25;1.92;;;5.00;99.90;;;;;;5071796;28;20016;-79
2023/01/10 12:29:28;;;;;;;3.80;1.67;;;5.10;99.90;;;;;;5077620;28;20024;-79
2023/01/10 12:31:57;;;;;;;2.83;1.67;;;5.00;99.90;;;;;;5076533;28;20504;-79
2023/01/10 12:34:32;;;;;;;8.70;1.70;;;5.00;99.90;;;;;;5078521;28;20031;-79
2023/01/10 12:37:11;;;;;;;6.93;1.75;;;5.00;99.90;;;;;;5082713;28;20538;-79
2023/01/10 12:39:42;;;;;;;3.90;1.58;;;5.00;99.90;;;;;;5061579;28;20021;-79
2023/01/10 12:45:13;;;;;;;5.45;1.80;;;4.90;99.90;;;;;;5059753;28;20137;-79
2023/01/10 12:47:54;;;;;;;9.55;2.20;;;4.80;99.90;;;;;;5056418;28;20033;-78
2023/01/10 12:50:24;;;;;;;5.63;1.90;;;4.70;99.90;;;;;;5052960;28;20039;-80
2023/01/10 12:52:58;;;;;;;5.80;1.60;;;4.70;99.90;;;;;;5040913;28;20039;-80
2023/01/10 12:55:28;;;;;;;6.05;1.52;;;4.80;99.90;;;;;;5047482;28;20035;-78
2023/01/10 12:58:00;;;;;;;3.63;1.70;;;4.80;99.90;;;;;;5079176;28;20048;-79
2023/01/10 13:00:32;;;;;;;5.22;2.00;;;4.80;99.90;;;;;;5058847;28;20063;-80
2023/01/10 13:03:01;;;;;;;6.30;1.75;;;4.90;99.90;;;;;;5058256;28;20037;-79
2023/01/10 13:05:29;;;;;;;6.07;2.28;;;4.90;99.90;;;;;;5058376;28;20105;-79
2023/01/10 13:08:01;;;;;;;3.50;1.20;;;4.90;99.90;;;;;;5074484;28;20029;-80
2023/01/10 13:10:28;;;;;;;4.38;1.23;;;4.90;99.90;;;;;;5064518;28;20036;-78
2023/01/10 13:13:25;;;;;;;2.10;1.15;;;4.80;99.90;;;;;;5055551;28;20055;-80
2023/01/10 13:16:15;;;;;;;4.38;1.30;;;4.90;99.90;;;;;;5072778;28;20055;-80
2023/01/10 13:19:04;;;;;;;2.95;1.20;;;4.90;99.90;;;;;;5066172;28;20102;-80
2023/01/10 13:21:32;;;;;;;4.22;1.17;;;4.80;99.90;;;;;;5055247;28;20047;-78
2023/01/10 13:24:05;;;;;;;3.08;1.20;;;4.70;99.90;;;;;;5058094;28;20025;-78
2023/01/10 13:26:51;;;;;;;4.80;0.98;;;4.70;99.90;;;;;;5076404;28;20039;-80
2023/01/10 13:29:20;;;;;;;2.08;0.98;;;4.60;99.90;;;;;;5052701;28;20064;-81